sensor_id;sensor_type;location;lat;lon;timestamp;pressure;altitude;pressure_sealevel;temperature;humidity
68077;BME280;54866;53.458;14.540;2023-05-19T00:00:17;101979.63;;;7.02;73.20
68077;BME280;54866;53.458;14.540;2023-05-19T00:02:45;101979.80;;;6.98;73.65
68077;BME280;54866;53.458;14.540;2023-05-19T00:05:12;101975.77;;;6.93;73.87
68077;BME280;54866;53.458;14.540;2023-05-19T00:07:43;101976.98;;;6.89;74.12
68077;BME280;54866;53.458;14.540;2023-05-19T00:10:12;101975.21;;;6.86;74.42
68077;BME280;54866;53.458;14.540;2023-05-19T00:12:40;101980.46;;;6.82;74.81
68077;BME280;54866;53.458;14.540;2023-05-19T00:15:08;101978.55;;;6.78;75.52
68077;BME280;54866;53.458;14.540;2023-05-19T00:17:36;101974.63;;;6.75;75.51
68077;BME280;54866;53.458;14.540;2023-05-19T00:20:03;101972.85;;;6.71;75.92
68077;BME280;54866;53.458;14.540;2023-05-19T00:22:32;101970.50;;;6.69;76.09
68077;BME280;54866;53.458;14.540;2023-05-19T00:24:59;101968.48;;;6.67;76.26
68077;BME280;54866;53.458;14.540;2023-05-19T00:27:25;101967.38;;;6.64;76.59
68077;BME280;54866;53.458;14.540;2023-05-19T00:29:52;101960.27;;;6.58;76.88
68077;BME280;54866;53.458;14.540;2023-05-19T00:32:19;101964.74;;;6.60;76.83
68077;BME280;54866;53.458;14.540;2023-05-19T00:34:46;101966.05;;;6.57;77.23
68077;BME280;54866;53.458;14.540;2023-05-19T00:37:14;101963.69;;;6.56;77.10
68077;BME280;54866;53.458;14.540;2023-05-19T00:39:42;101958.01;;;6.54;77.37
68077;BME280;54866;53.458;14.540;2023-05-19T00:42:08;101955.77;;;6.52;77.50
68077;BME280;54866;53.458;14.540;2023-05-19T00:44:36;101956.02;;;6.51;77.57
68077;BME280;54866;53.458;14.540;2023-05-19T00:47:03;101956.27;;;6.49;77.68
68077;BME280;54866;53.458;14.540;2023-05-19T00:49:30;101959.30;;;6.48;78.09
68077;BME280;54866;53.458;14.540;2023-05-19T00:51:57;101958.52;;;6.46;78.57
68077;BME280;54866;53.458;14.540;2023-05-19T00:54:25;101961.20;;;6.45;78.66
68077;BME280;54866;53.458;14.540;2023-05-19T00:56:52;101959.52;;;6.43;78.90
68077;BME280;54866;53.458;14.540;2023-05-19T00:59:18;101964.99;;;6.41;78.99
68077;BME280;54866;53.458;14.540;2023-05-19T01:01:45;101969.06;;;6.40;79.11
68077;BME280;54866;53.458;14.540;2023-05-19T01:04:14;101961.98;;;6.38;79.12
68077;BME280;54866;53.458;14.540;2023-05-19T01:06:42;101967.33;;;6.35;79.24
68077;BME280;54866;53.458;14.540;2023-05-19T01:09:09;101969.19;;;6.32;79.57
68077;BME280;54866;53.458;14.540;2023-05-19T01:11:36;101964.41;;;6.29;79.72
68077;BME280;54866;53.458;14.540;2023-05-19T01:14:03;101968.02;;;6.27;79.87
68077;BME280;54866;53.458;14.540;2023-05-19T01:16:31;101969.31;;;6.25;79.99
68077;BME280;54866;53.458;14.540;2023-05-19T01:19:03;101970.61;;;6.23;80.32
68077;BME280;54866;53.458;14.540;2023-05-19T01:21:55;101967.98;;;6.19;80.69
68077;BME280;54866;53.458;14.540;2023-05-19T01:24:42;101967.77;;;6.15;80.76
68077;BME280;54866;53.458;14.540;2023-05-19T01:27:20;101962.77;;;6.09;81.09
68077;BME280;54866;53.458;14.540;2023-05-19T01:29:54;101963.95;;;6.11;81.33
68077;BME280;54866;53.458;14.540;2023-05-19T01:32:24;101964.56;;;6.08;81.56
68077;BME280;54866;53.458;14.540;2023-05-19T01:34:50;101964.93;;;6.08;81.47
68077;BME280;54866;53.458;14.540;2023-05-19T01:37:19;101971.75;;;6.08;81.92
68077;BME280;54866;53.458;14.540;2023-05-19T01:39:47;101964.92;;;6.08;82.12
68077;BME280;54866;53.458;14.540;2023-05-19T01:42:13;101968.25;;;6.08;82.43
68077;BME280;54866;53.458;14.540;2023-05-19T01:44:40;101971.58;;;6.08;82.84
68077;BME280;54866;53.458;14.540;2023-05-19T01:47:08;101969.58;;;6.10;83.02
68077;BME280;54866;53.458;14.540;2023-05-19T01:49:35;101970.70;;;6.12;83.17
68077;BME280;54866;53.458;14.540;2023-05-19T01:52:02;101971.15;;;6.14;83.16
68077;BME280;54866;53.458;14.540;2023-05-19T01:54:29;101968.32;;;6.15;83.03
68077;BME280;54866;53.458;14.540;2023-05-19T01:56:59;101975.60;;;6.16;82.92
68077;BME280;54866;53.458;14.540;2023-05-19T01:59:33;101975.48;;;6.20;83.03
68077;BME280;54866;53.458;14.540;2023-05-19T02:02:04;101975.99;;;6.24;83.15
68077;BME280;54866;53.458;14.540;2023-05-19T02:04:37;101975.77;;;6.26;83.27
68077;BME280;54866;53.458;14.540;2023-05-19T02:07:11;101975.49;;;6.28;83.58
68077;BME280;54866;53.458;14.540;2023-05-19T02:09:40;101979.77;;;6.30;83.60
68077;BME280;54866;53.458;14.540;2023-05-19T02:12:13;101973.65;;;6.34;83.60
68077;BME280;54866;53.458;14.540;2023-05-19T02:14:44;101976.30;;;6.39;83.75
68077;BME280;54866;53.458;14.540;2023-05-19T02:17:14;101974.92;;;6.42;83.68
68077;BME280;54866;53.458;14.540;2023-05-19T02:19:43;101976.45;;;6.44;83.96
68077;BME280;54866;53.458;14.540;2023-05-19T02:22:10;101972.30;;;6.47;84.03
68077;BME280;54866;53.458;14.540;2023-05-19T02:24:37;101968.71;;;6.53;83.42
68077;BME280;54866;53.458;14.540;2023-05-19T02:27:06;101967.08;;;6.58;83.50
68077;BME280;54866;53.458;14.540;2023-05-19T02:29:33;101968.15;;;6.67;83.25
68077;BME280;54866;53.458;14.540;2023-05-19T02:32:00;101967.06;;;6.71;82.58
68077;BME280;54866;53.458;14.540;2023-05-19T02:34:29;101972.01;;;6.75;82.34
68077;BME280;54866;53.458;14.540;2023-05-19T02:36:57;101967.67;;;6.78;82.37
68077;BME280;54866;53.458;14.540;2023-05-19T02:39:24;101967.95;;;6.83;82.35
68077;BME280;54866;53.458;14.540;2023-05-19T02:41:51;101966.63;;;6.86;81.96
68077;BME280;54866;53.458;14.540;2023-05-19T02:44:18;101964.39;;;6.85;82.13
68077;BME280;54866;53.458;14.540;2023-05-19T02:46:44;101962.06;;;6.86;82.07
68077;BME280;54866;53.458;14.540;2023-05-19T02:49:11;101964.60;;;6.92;81.54
68077;BME280;54866;53.458;14.540;2023-05-19T02:51:38;101962.98;;;7.02;80.56
68077;BME280;54866;53.458;14.540;2023-05-19T02:54:05;101967.60;;;7.12;80.07
68077;BME280;54866;53.458;14.540;2023-05-19T02:56:32;101967.21;;;7.17;79.86
68077;BME280;54866;53.458;14.540;2023-05-19T02:58:59;101967.86;;;7.19;79.86
68077;BME280;54866;53.458;14.540;2023-05-19T03:01:26;101970.65;;;7.18;79.42
68077;BME280;54866;53.458;14.540;2023-05-19T03:03:53;101966.74;;;7.16;79.66
68077;BME280;54866;53.458;14.540;2023-05-19T03:06:20;101966.65;;;7.14;80.08
68077;BME280;54866;53.458;14.540;2023-05-19T03:08:48;101961.04;;;7.14;79.87
68077;BME280;54866;53.458;14.540;2023-05-19T03:11:15;101960.45;;;7.16;79.70
68077;BME280;54866;53.458;14.540;2023-05-19T03:13:42;101958.81;;;7.17;79.27
68077;BME280;54866;53.458;14.540;2023-05-19T03:16:08;101962.04;;;7.15;79.09
68077;BME280;54866;53.458;14.540;2023-05-19T03:18:36;101964.54;;;7.15;79.32
68077;BME280;54866;53.458;14.540;2023-05-19T03:21:03;101966.80;;;7.15;79.49
68077;BME280;54866;53.458;14.540;2023-05-19T03:23:30;101966.59;;;7.16;79.47
68077;BME280;54866;53.458;14.540;2023-05-19T03:25:58;101965.16;;;7.16;79.64
68077;BME280;54866;53.458;14.540;2023-05-19T03:28:24;101969.98;;;7.18;79.36
68077;BME280;54866;53.458;14.540;2023-05-19T03:30:52;101965.35;;;7.20;79.22
68077;BME280;54866;53.458;14.540;2023-05-19T03:33:19;101974.77;;;7.20;79.30
68077;BME280;54866;53.458;14.540;2023-05-19T03:35:46;101972.61;;;7.22;79.10
68077;BME280;54866;53.458;14.540;2023-05-19T03:38:12;101975.48;;;7.24;78.83
68077;BME280;54866;53.458;14.540;2023-05-19T03:40:39;101972.44;;;7.26;78.82
68077;BME280;54866;53.458;14.540;2023-05-19T03:43:06;101981.98;;;7.28;79.23
68077;BME280;54866;53.458;14.540;2023-05-19T03:45:33;101981.41;;;7.30;79.26
68077;BME280;54866;53.458;14.540;2023-05-19T03:48:00;101984.77;;;7.33;79.10
68077;BME280;54866;53.458;14.540;2023-05-19T03:50:27;101987.52;;;7.38;78.92
68077;BME280;54866;53.458;14.540;2023-05-19T03:52:56;101984.02;;;7.41;78.82
68077;BME280;54866;53.458;14.540;2023-05-19T03:55:23;101987.38;;;7.45;78.73
68077;BME280;54866;53.458;14.540;2023-05-19T03:57:50;101986.77;;;7.47;78.66
68077;BME280;54866;53.458;14.540;2023-05-19T04:00:18;101992.08;;;7.54;78.28
68077;BME280;54866;53.458;14.540;2023-05-19T04:02:45;101993.32;;;7.57;78.55
68077;BME280;54866;53.458;14.540;2023-05-19T04:05:12;101994.42;;;7.60;78.22
68077;BME280;54866;53.458;14.540;2023-05-19T04:07:39;101994.36;;;7.61;78.21
68077;BME280;54866;53.458;14.540;2023-05-19T04:10:07;101995.60;;;7.65;78.57
68077;BME280;54866;53.458;14.540;2023-05-19T04:12:34;101995.84;;;7.68;78.27
68077;BME280;54866;53.458;14.540;2023-05-19T04:15:01;101996.06;;;7.70;78.34
68077;BME280;54866;53.458;14.540;2023-05-19T04:17:28;101998.15;;;7.74;77.93
68077;BME280;54866;53.458;14.540;2023-05-19T04:19:55;101997.10;;;7.78;77.91
68077;BME280;54866;53.458;14.540;2023-05-19T04:22:22;101999.04;;;7.82;77.92
68077;BME280;54866;53.458;14.540;2023-05-19T04:24:48;101999.84;;;7.88;77.54
68077;BME280;54866;53.458;14.540;2023-05-19T04:27:16;102001.30;;;7.93;77.56
68077;BME280;54866;53.458;14.540;2023-05-19T04:29:43;102000.23;;;7.98;77.16
68077;BME280;54866;53.458;14.540;2023-05-19T04:32:10;102003.04;;;8.01;77.28
68077;BME280;54866;53.458;14.540;2023-05-19T04:34:42;102003.71;;;8.06;76.88
68077;BME280;54866;53.458;14.540;2023-05-19T04:37:11;102001.67;;;8.12;76.55
68077;BME280;54866;53.458;14.540;2023-05-19T04:39:39;102001.85;;;8.15;76.23
68077;BME280;54866;53.458;14.540;2023-05-19T04:42:09;101999.97;;;8.22;75.90
68077;BME280;54866;53.458;14.540;2023-05-19T04:44:36;102000.30;;;8.30;75.83
68077;BME280;54866;53.458;14.540;2023-05-19T04:47:05;102000.69;;;8.37;75.11
68077;BME280;54866;53.458;14.540;2023-05-19T04:49:33;102000.02;;;8.47;74.81
68077;BME280;54866;53.458;14.540;2023-05-19T04:52:04;102002.18;;;8.60;74.04
68077;BME280;54866;53.458;14.540;2023-05-19T04:54:32;101999.57;;;8.74;73.59
68077;BME280;54866;53.458;14.540;2023-05-19T04:56:58;102003.77;;;8.89;72.87
68077;BME280;54866;53.458;14.540;2023-05-19T04:59:25;102002.61;;;9.01;72.54
68077;BME280;54866;53.458;14.540;2023-05-19T05:01:52;102000.36;;;9.14;72.22
68077;BME280;54866;53.458;14.540;2023-05-19T05:04:21;102000.85;;;9.25;71.11
68077;BME280;54866;53.458;14.540;2023-05-19T05:06:48;101997.27;;;9.36;70.28
68077;BME280;54866;53.458;14.540;2023-05-19T05:09:15;101998.09;;;9.48;69.62
68077;BME280;54866;53.458;14.540;2023-05-19T05:11:43;101992.95;;;9.58;69.26
68077;BME280;54866;53.458;14.540;2023-05-19T05:14:11;101990.89;;;9.67;68.35
68077;BME280;54866;53.458;14.540;2023-05-19T05:16:38;101987.69;;;9.74;67.72
68077;BME280;54866;53.458;14.540;2023-05-19T05:19:06;101994.23;;;9.90;67.34
68077;BME280;54866;53.458;14.540;2023-05-19T05:21:33;101995.02;;;10.05;67.01
68077;BME280;54866;53.458;14.540;2023-05-19T05:24:01;101991.74;;;10.19;66.22
68077;BME280;54866;53.458;14.540;2023-05-19T05:26:29;101989.23;;;10.30;65.13
68077;BME280;54866;53.458;14.540;2023-05-19T05:28:56;101991.52;;;10.42;64.28
68077;BME280;54866;53.458;14.540;2023-05-19T05:31:23;101989.41;;;10.57;64.41
68077;BME280;54866;53.458;14.540;2023-05-19T05:33:50;101989.42;;;10.75;63.73
68077;BME280;54866;53.458;14.540;2023-05-19T05:36:17;101985.42;;;10.89;61.59
68077;BME280;54866;53.458;14.540;2023-05-19T05:38:44;101988.45;;;11.10;61.13
68077;BME280;54866;53.458;14.540;2023-05-19T05:41:11;101983.24;;;11.72;58.66
68077;BME280;54866;53.458;14.540;2023-05-19T05:43:37;101987.26;;;13.00;57.17
68077;BME280;54866;53.458;14.540;2023-05-19T05:46:05;101981.23;;;14.14;52.64
68077;BME280;54866;53.458;14.540;2023-05-19T05:48:32;101981.58;;;15.12;50.68
68077;BME280;54866;53.458;14.540;2023-05-19T05:50:59;101979.80;;;15.62;47.71
68077;BME280;54866;53.458;14.540;2023-05-19T05:53:27;101980.54;;;16.10;45.80
68077;BME280;54866;53.458;14.540;2023-05-19T05:55:56;101981.17;;;16.54;44.16
68077;BME280;54866;53.458;14.540;2023-05-19T05:58:23;101977.48;;;16.78;41.85
68077;BME280;54866;53.458;14.540;2023-05-19T06:00:50;101977.51;;;17.09;42.17
68077;BME280;54866;53.458;14.540;2023-05-19T06:03:18;101976.55;;;17.37;40.74
68077;BME280;54866;53.458;14.540;2023-05-19T06:05:48;101977.33;;;17.44;39.33
68077;BME280;54866;53.458;14.540;2023-05-19T06:08:15;101980.62;;;17.74;40.18
68077;BME280;54866;53.458;14.540;2023-05-19T06:10:42;101980.45;;;18.15;40.49
68077;BME280;54866;53.458;14.540;2023-05-19T06:13:09;101976.52;;;18.59;38.08
68077;BME280;54866;53.458;14.540;2023-05-19T06:15:36;101977.52;;;18.77;37.69
68077;BME280;54866;53.458;14.540;2023-05-19T06:18:03;101976.52;;;18.80;36.49
68077;BME280;54866;53.458;14.540;2023-05-19T06:20:29;101980.92;;;18.87;37.19
68077;BME280;54866;53.458;14.540;2023-05-19T06:22:56;101981.06;;;18.77;36.69
68077;BME280;54866;53.458;14.540;2023-05-19T06:25:22;101983.25;;;18.36;36.29
68077;BME280;54866;53.458;14.540;2023-05-19T06:27:50;101982.77;;;18.18;36.66
68077;BME280;54866;53.458;14.540;2023-05-19T06:30:17;101985.73;;;18.05;37.24
68077;BME280;54866;53.458;14.540;2023-05-19T06:32:44;101983.57;;;18.01;37.02
68077;BME280;54866;53.458;14.540;2023-05-19T06:35:11;101981.59;;;17.89;35.94
68077;BME280;54866;53.458;14.540;2023-05-19T06:37:38;101986.66;;;17.64;35.85
68077;BME280;54866;53.458;14.540;2023-05-19T06:40:07;101984.34;;;17.41;36.58
68077;BME280;54866;53.458;14.540;2023-05-19T06:42:33;101988.39;;;16.85;37.71
68077;BME280;54866;53.458;14.540;2023-05-19T06:45:02;101989.27;;;16.64;38.88
68077;BME280;54866;53.458;14.540;2023-05-19T06:47:30;101991.89;;;16.34;39.34
68077;BME280;54866;53.458;14.540;2023-05-19T06:49:57;101993.47;;;16.04;40.34
68077;BME280;54866;53.458;14.540;2023-05-19T06:52:23;101993.94;;;15.69;40.93
68077;BME280;54866;53.458;14.540;2023-05-19T06:54:50;101989.01;;;15.55;41.24
68077;BME280;54866;53.458;14.540;2023-05-19T06:57:17;101989.20;;;15.44;41.75
68077;BME280;54866;53.458;14.540;2023-05-19T07:02:45;101991.52;;;15.16;42.57
68077;BME280;54866;53.458;14.540;2023-05-19T07:16:57;101987.95;;;15.03;44.46
68077;BME280;54866;53.458;14.540;2023-05-19T07:22:32;101994.00;;;15.53;44.59
68077;BME280;54866;53.458;14.540;2023-05-19T07:25:02;101988.01;;;15.73;43.44
68077;BME280;54866;53.458;14.540;2023-05-19T07:27:29;101993.52;;;15.77;43.75
68077;BME280;54866;53.458;14.540;2023-05-19T07:29:56;101960.14;;;15.77;43.89
68077;BME280;54866;53.458;14.540;2023-05-19T07:32:23;101989.64;;;16.19;43.81
68077;BME280;54866;53.458;14.540;2023-05-19T07:34:51;101985.52;;;16.30;43.13
68077;BME280;54866;53.458;14.540;2023-05-19T07:37:20;101978.20;;;16.39;42.60
68077;BME280;54866;53.458;14.540;2023-05-19T07:39:47;101989.68;;;16.59;42.77
68077;BME280;54866;53.458;14.540;2023-05-19T07:42:16;101982.52;;;16.64;42.92
68077;BME280;54866;53.458;14.540;2023-05-19T07:44:52;101980.06;;;16.85;43.30
68077;BME280;54866;53.458;14.540;2023-05-19T07:47:21;101986.89;;;17.20;43.11
68077;BME280;54866;53.458;14.540;2023-05-19T07:49:55;101985.63;;;17.47;41.75
68077;BME280;54866;53.458;14.540;2023-05-19T07:52:27;101972.76;;;17.37;41.00
68077;BME280;54866;53.458;14.540;2023-05-19T07:54:57;101969.60;;;17.40;40.86
68077;BME280;54866;53.458;14.540;2023-05-19T07:57:24;101980.23;;;17.56;41.03
68077;BME280;54866;53.458;14.540;2023-05-19T07:59:58;101970.33;;;17.63;40.67
68077;BME280;54866;53.458;14.540;2023-05-19T08:02:25;101975.90;;;17.79;40.45
68077;BME280;54866;53.458;14.540;2023-05-19T08:04:52;101974.31;;;17.86;40.29
68077;BME280;54866;53.458;14.540;2023-05-19T08:07:20;101977.59;;;17.94;40.45
68077;BME280;54866;53.458;14.540;2023-05-19T08:09:49;101973.85;;;18.08;40.41
68077;BME280;54866;53.458;14.540;2023-05-19T08:12:16;101975.09;;;18.16;40.36
68077;BME280;54866;53.458;14.540;2023-05-19T08:14:43;101973.53;;;18.33;39.85
68077;BME280;54866;53.458;14.540;2023-05-19T08:17:11;101972.28;;;18.43;38.19
68077;BME280;54866;53.458;14.540;2023-05-19T08:19:38;101977.95;;;18.41;38.30
68077;BME280;54866;53.458;14.540;2023-05-19T08:22:05;101975.20;;;18.48;39.28
68077;BME280;54866;53.458;14.540;2023-05-19T08:24:32;101964.29;;;18.56;38.72
68077;BME280;54866;53.458;14.540;2023-05-19T08:26:58;101970.56;;;18.79;38.96
68077;BME280;54866;53.458;14.540;2023-05-19T08:29:25;101970.02;;;18.98;39.56
68077;BME280;54866;53.458;14.540;2023-05-19T08:31:52;101966.80;;;19.28;39.16
68077;BME280;54866;53.458;14.540;2023-05-19T08:34:19;101966.85;;;19.52;38.84
68077;BME280;54866;53.458;14.540;2023-05-19T08:36:46;101954.44;;;19.72;38.81
68077;BME280;54866;53.458;14.540;2023-05-19T08:39:13;101946.57;;;19.97;38.21
68077;BME280;54866;53.458;14.540;2023-05-19T08:41:41;101955.18;;;20.17;36.99
68077;BME280;54866;53.458;14.540;2023-05-19T08:44:08;101953.67;;;20.25;36.55
68077;BME280;54866;53.458;14.540;2023-05-19T08:46:34;101950.11;;;20.21;36.09
68077;BME280;54866;53.458;14.540;2023-05-19T08:49:03;101948.50;;;20.16;36.65
68077;BME280;54866;53.458;14.540;2023-05-19T08:51:32;101951.15;;;20.20;36.56
68077;BME280;54866;53.458;14.540;2023-05-19T08:54:03;101953.16;;;20.36;36.74
68077;BME280;54866;53.458;14.540;2023-05-19T08:56:34;101945.77;;;20.51;36.49
68077;BME280;54866;53.458;14.540;2023-05-19T08:59:01;101941.58;;;20.62;36.64
68077;BME280;54866;53.458;14.540;2023-05-19T09:01:28;101941.34;;;20.74;36.51
68077;BME280;54866;53.458;14.540;2023-05-19T09:03:56;101935.46;;;21.02;36.34
68077;BME280;54866;53.458;14.540;2023-05-19T09:06:23;101932.00;;;21.20;35.07
68077;BME280;54866;53.458;14.540;2023-05-19T09:08:52;101919.82;;;21.13;34.40
68077;BME280;54866;53.458;14.540;2023-05-19T09:11:19;101923.48;;;20.90;32.86
68077;BME280;54866;53.458;14.540;2023-05-19T09:13:47;101931.84;;;20.57;33.40
68077;BME280;54866;53.458;14.540;2023-05-19T09:16:15;101927.67;;;20.40;33.64
68077;BME280;54866;53.458;14.540;2023-05-19T09:18:49;101931.80;;;20.25;34.17
68077;BME280;54866;53.458;14.540;2023-05-19T09:21:19;101928.95;;;20.14;33.90
68077;BME280;54866;53.458;14.540;2023-05-19T09:23:46;101912.05;;;20.01;34.64
68077;BME280;54866;53.458;14.540;2023-05-19T09:26:14;101931.96;;;20.27;34.69
68077;BME280;54866;53.458;14.540;2023-05-19T09:28:41;101927.80;;;20.53;33.89
68077;BME280;54866;53.458;14.540;2023-05-19T09:31:08;101928.97;;;20.73;33.66
68077;BME280;54866;53.458;14.540;2023-05-19T09:33:36;101919.93;;;21.00;33.59
68077;BME280;54866;53.458;14.540;2023-05-19T09:36:03;101914.58;;;21.24;33.85
68077;BME280;54866;53.458;14.540;2023-05-19T09:38:31;101914.98;;;21.63;34.07
68077;BME280;54866;53.458;14.540;2023-05-19T09:40:58;101911.92;;;21.86;33.23
68077;BME280;54866;53.458;14.540;2023-05-19T09:43:27;101913.36;;;22.07;32.06
68077;BME280;54866;53.458;14.540;2023-05-19T09:45:56;101914.25;;;22.01;31.78
68077;BME280;54866;53.458;14.540;2023-05-19T09:48:25;101913.60;;;21.94;31.00
68077;BME280;54866;53.458;14.540;2023-05-19T09:50:59;101915.24;;;21.90;30.78
68077;BME280;54866;53.458;14.540;2023-05-19T09:53:27;101911.79;;;21.93;29.69
68077;BME280;54866;53.458;14.540;2023-05-19T09:55:57;101911.58;;;21.98;29.40
68077;BME280;54866;53.458;14.540;2023-05-19T09:58:24;101909.34;;;22.11;29.60
68077;BME280;54866;53.458;14.540;2023-05-19T10:00:54;101911.15;;;22.15;29.25
68077;BME280;54866;53.458;14.540;2023-05-19T10:03:23;101898.58;;;22.25;29.58
68077;BME280;54866;53.458;14.540;2023-05-19T10:05:52;101897.98;;;22.52;28.90
68077;BME280;54866;53.458;14.540;2023-05-19T10:08:19;101900.85;;;22.73;28.34
68077;BME280;54866;53.458;14.540;2023-05-19T10:10:46;101881.59;;;22.82;28.13
68077;BME280;54866;53.458;14.540;2023-05-19T10:13:13;101895.63;;;22.88;27.44
68077;BME280;54866;53.458;14.540;2023-05-19T10:15:41;101895.55;;;22.58;27.77
68077;BME280;54866;53.458;14.540;2023-05-19T10:18:09;101897.86;;;22.32;28.01
68077;BME280;54866;53.458;14.540;2023-05-19T10:20:36;101893.10;;;22.33;28.82
68077;BME280;54866;53.458;14.540;2023-05-19T10:23:03;101889.77;;;22.37;29.29
68077;BME280;54866;53.458;14.540;2023-05-19T10:25:30;101893.17;;;22.57;29.63
68077;BME280;54866;53.458;14.540;2023-05-19T10:27:58;101891.08;;;22.89;29.30
68077;BME280;54866;53.458;14.540;2023-05-19T10:30:28;101887.66;;;23.22;28.99
68077;BME280;54866;53.458;14.540;2023-05-19T10:32:57;101889.70;;;23.36;28.86
68077;BME280;54866;53.458;14.540;2023-05-19T10:38:20;101889.67;;;23.38;26.62
68077;BME280;54866;53.458;14.540;2023-05-19T10:40:52;101895.20;;;23.25;27.79
68077;BME280;54866;53.458;14.540;2023-05-19T10:43:23;101886.75;;;23.30;28.68
68077;BME280;54866;53.458;14.540;2023-05-19T10:45:51;101895.89;;;23.58;28.51
68077;BME280;54866;53.458;14.540;2023-05-19T10:48:19;101890.49;;;23.89;27.98
68077;BME280;54866;53.458;14.540;2023-05-19T10:50:46;101891.45;;;24.09;27.15
68077;BME280;54866;53.458;14.540;2023-05-19T10:53:16;101885.14;;;24.02;27.36
68077;BME280;54866;53.458;14.540;2023-05-19T10:58:38;101878.64;;;24.39;27.00
68077;BME280;54866;53.458;14.540;2023-05-19T11:01:06;101881.35;;;24.32;26.02
68077;BME280;54866;53.458;14.540;2023-05-19T11:03:42;101872.55;;;24.11;26.86
68077;BME280;54866;53.458;14.540;2023-05-19T11:08:54;101870.93;;;23.78;26.07
68077;BME280;54866;53.458;14.540;2023-05-19T11:11:21;101872.84;;;23.67;27.71
68077;BME280;54866;53.458;14.540;2023-05-19T11:13:48;101869.63;;;23.81;26.66
68077;BME280;54866;53.458;14.540;2023-05-19T11:16:17;101867.07;;;23.87;26.58
68077;BME280;54866;53.458;14.540;2023-05-19T11:18:47;101864.03;;;23.91;26.88
68077;BME280;54866;53.458;14.540;2023-05-19T11:21:14;101860.16;;;23.92;26.51
68077;BME280;54866;53.458;14.540;2023-05-19T11:23:41;101862.27;;;23.81;26.64
68077;BME280;54866;53.458;14.540;2023-05-19T11:26:08;101860.27;;;24.00;26.36
68077;BME280;54866;53.458;14.540;2023-05-19T11:28:35;101854.80;;;23.88;25.84
68077;BME280;54866;53.458;14.540;2023-05-19T11:31:03;101851.96;;;23.64;25.94
68077;BME280;54866;53.458;14.540;2023-05-19T11:33:33;101849.40;;;23.62;26.86
68077;BME280;54866;53.458;14.540;2023-05-19T11:36:00;101850.98;;;23.69;27.20
68077;BME280;54866;53.458;14.540;2023-05-19T11:38:28;101847.67;;;23.87;27.26
68077;BME280;54866;53.458;14.540;2023-05-19T11:40:56;101841.77;;;23.86;26.35
68077;BME280;54866;53.458;14.540;2023-05-19T11:43:23;101842.17;;;23.86;27.25
68077;BME280;54866;53.458;14.540;2023-05-19T11:45:49;101838.04;;;23.95;26.55
68077;BME280;54866;53.458;14.540;2023-05-19T11:48:16;101831.98;;;24.08;26.61
68077;BME280;54866;53.458;14.540;2023-05-19T11:50:47;101835.06;;;24.27;25.86
68077;BME280;54866;53.458;14.540;2023-05-19T11:53:14;101836.77;;;24.15;25.43
68077;BME280;54866;53.458;14.540;2023-05-19T11:55:41;101839.77;;;23.71;24.87
68077;BME280;54866;53.458;14.540;2023-05-19T11:58:09;101839.67;;;23.15;25.45
68077;BME280;54866;53.458;14.540;2023-05-19T12:00:36;101834.91;;;22.86;26.38
68077;BME280;54866;53.458;14.540;2023-05-19T12:03:04;101831.27;;;22.72;26.25
68077;BME280;54866;53.458;14.540;2023-05-19T12:05:31;101829.45;;;22.56;26.28
68077;BME280;54866;53.458;14.540;2023-05-19T12:07:58;101833.88;;;22.32;26.02
68077;BME280;54866;53.458;14.540;2023-05-19T12:10:26;101833.17;;;22.21;26.44
68077;BME280;54866;53.458;14.540;2023-05-19T12:12:53;101836.94;;;22.31;27.32
68077;BME280;54866;53.458;14.540;2023-05-19T12:15:21;101833.70;;;22.34;26.71
68077;BME280;54866;53.458;14.540;2023-05-19T12:17:48;101828.66;;;22.18;27.12
68077;BME280;54866;53.458;14.540;2023-05-19T12:20:16;101831.09;;;22.32;27.86
68077;BME280;54866;53.458;14.540;2023-05-19T12:22:42;101829.61;;;22.65;27.75
68077;BME280;54866;53.458;14.540;2023-05-19T12:25:09;101829.14;;;23.00;27.52
68077;BME280;54866;53.458;14.540;2023-05-19T12:27:36;101826.65;;;22.99;26.38
68077;BME280;54866;53.458;14.540;2023-05-19T12:30:03;101825.23;;;22.81;26.81
68077;BME280;54866;53.458;14.540;2023-05-19T12:32:32;101819.70;;;22.66;27.39
68077;BME280;54866;53.458;14.540;2023-05-19T12:35:00;101817.86;;;22.79;27.73
68077;BME280;54866;53.458;14.540;2023-05-19T12:37:27;101815.80;;;22.93;26.54
68077;BME280;54866;53.458;14.540;2023-05-19T12:39:54;101806.59;;;22.89;26.74
68077;BME280;54866;53.458;14.540;2023-05-19T12:42:21;101807.20;;;22.80;26.81
68077;BME280;54866;53.458;14.540;2023-05-19T12:44:49;101814.30;;;22.76;27.08
68077;BME280;54866;53.458;14.540;2023-05-19T12:47:17;101816.20;;;22.90;27.49
68077;BME280;54866;53.458;14.540;2023-05-19T12:49:54;101806.98;;;23.06;27.27
68077;BME280;54866;53.458;14.540;2023-05-19T12:52:21;101804.09;;;23.12;26.87
68077;BME280;54866;53.458;14.540;2023-05-19T12:54:48;101807.53;;;23.20;26.68
68077;BME280;54866;53.458;14.540;2023-05-19T12:57:15;101806.81;;;23.21;26.26
68077;BME280;54866;53.458;14.540;2023-05-19T12:59:42;101803.86;;;22.91;26.67
68077;BME280;54866;53.458;14.540;2023-05-19T13:02:09;101801.52;;;22.65;26.90
68077;BME280;54866;53.458;14.540;2023-05-19T13:04:36;101795.95;;;22.54;27.33
68077;BME280;54866;53.458;14.540;2023-05-19T13:07:02;101796.77;;;22.39;27.33
68077;BME280;54866;53.458;14.540;2023-05-19T13:09:29;101793.27;;;22.43;27.30
68077;BME280;54866;53.458;14.540;2023-05-19T13:11:59;101794.02;;;22.47;27.33
68077;BME280;54866;53.458;14.540;2023-05-19T13:14:26;101788.56;;;22.56;27.48